Terminal Aerodrome Forecast
Issued by NWS Flagstaff, AZ

Home | Current Version | Previous Version | Text Only | Print | Product List | Glossary On
Versions: 1 2 3 4 5 6 7 8 9 10 11 12 13 14 15
000
FTUS45 KFGZ 051720
TAFINW
TAF
KINW 051720Z 0518/0618 22008KT P6SM VCSH BKN080 BKN120
     FM052100 26012KT P6SM SCT080 BKN110
      TEMPO 0522/0602 VRB15G30KT TSRA BKN060CB
     FM060400 26009KT P6SM SCT080 BKN120=

USA.gov is the U.S. government's official web portal to all federal, state and local government web resources and services.